sensor_id;sensor_type;location;lat;lon;timestamp;P1;durP1;ratioP1;P2;durP2;ratioP2
18274;SDS011;19470;49.322;7.218;2023-03-01T00:00:01;11.83;;;7.43;;
18274;SDS011;19470;49.322;7.218;2023-03-01T00:02:29;12.57;;;7.23;;
18274;SDS011;19470;49.322;7.218;2023-03-01T00:04:56;13.10;;;7.07;;
18274;SDS011;19470;49.322;7.218;2023-03-01T00:07:23;11.40;;;6.83;;
18274;SDS011;19470;49.322;7.218;2023-03-01T00:09:50;13.90;;;7.20;;
18274;SDS011;19470;49.322;7.218;2023-03-01T00:12:18;14.10;;;7.53;;
18274;SDS011;19470;49.322;7.218;2023-03-01T00:14:44;13.23;;;7.30;;
18274;SDS011;19470;49.322;7.218;2023-03-01T00:17:11;13.57;;;7.40;;
18274;SDS011;19470;49.322;7.218;2023-03-01T00:19:38;12.57;;;8.00;;
18274;SDS011;19470;49.322;7.218;2023-03-01T00:22:04;11.73;;;7.07;;
18274;SDS011;19470;49.322;7.218;2023-03-01T00:24:31;13.13;;;7.37;;
18274;SDS011;19470;49.322;7.218;2023-03-01T00:26:57;15.70;;;7.73;;
18274;SDS011;19470;49.322;7.218;2023-03-01T00:29:25;12.00;;;6.57;;
18274;SDS011;19470;49.322;7.218;2023-03-01T00:31:52;20.00;;;9.30;;
18274;SDS011;19470;49.322;7.218;2023-03-01T00:34:18;17.37;;;8.40;;
18274;SDS011;19470;49.322;7.218;2023-03-01T00:36:45;13.73;;;8.30;;
18274;SDS011;19470;49.322;7.218;2023-03-01T00:39:12;13.17;;;7.97;;
18274;SDS011;19470;49.322;7.218;2023-03-01T00:41:39;14.83;;;8.40;;
18274;SDS011;19470;49.322;7.218;2023-03-01T00:44:06;15.73;;;8.50;;
18274;SDS011;19470;49.322;7.218;2023-03-01T00:46:34;15.07;;;7.87;;
18274;SDS011;19470;49.322;7.218;2023-03-01T00:49:00;13.00;;;7.60;;
18274;SDS011;19470;49.322;7.218;2023-03-01T00:51:28;11.93;;;7.63;;
18274;SDS011;19470;49.322;7.218;2023-03-01T00:53:56;15.27;;;9.27;;
18274;SDS011;19470;49.322;7.218;2023-03-01T00:56:24;15.47;;;9.00;;
18274;SDS011;19470;49.322;7.218;2023-03-01T00:58:51;13.90;;;8.07;;
18274;SDS011;19470;49.322;7.218;2023-03-01T01:01:19;12.53;;;7.60;;
18274;SDS011;19470;49.322;7.218;2023-03-01T01:03:49;14.13;;;7.80;;
18274;SDS011;19470;49.322;7.218;2023-03-01T01:06:18;10.77;;;7.20;;
18274;SDS011;19470;49.322;7.218;2023-03-01T01:08:46;12.63;;;7.30;;
18274;SDS011;19470;49.322;7.218;2023-03-01T01:11:13;12.30;;;7.77;;
18274;SDS011;19470;49.322;7.218;2023-03-01T01:13:40;13.07;;;8.37;;
18274;SDS011;19470;49.322;7.218;2023-03-01T01:16:07;10.73;;;7.23;;
18274;SDS011;19470;49.322;7.218;2023-03-01T01:18:34;16.03;;;8.60;;
18274;SDS011;19470;49.322;7.218;2023-03-01T01:21:06;14.57;;;7.83;;
18274;SDS011;19470;49.322;7.218;2023-03-01T01:23:33;12.23;;;7.63;;
18274;SDS011;19470;49.322;7.218;2023-03-01T01:26:04;10.87;;;6.60;;
18274;SDS011;19470;49.322;7.218;2023-03-01T01:28:31;12.17;;;7.87;;
18274;SDS011;19470;49.322;7.218;2023-03-01T01:34:20;10.77;;;7.70;;
18274;SDS011;19470;49.322;7.218;2023-03-01T01:36:49;13.13;;;8.43;;
18274;SDS011;19470;49.322;7.218;2023-03-01T01:39:16;15.07;;;8.17;;
18274;SDS011;19470;49.322;7.218;2023-03-01T01:41:43;14.60;;;7.77;;
18274;SDS011;19470;49.322;7.218;2023-03-01T01:44:11;13.27;;;8.00;;
18274;SDS011;19470;49.322;7.218;2023-03-01T01:46:39;12.57;;;8.00;;
18274;SDS011;19470;49.322;7.218;2023-03-01T01:49:10;11.50;;;7.90;;
18274;SDS011;19470;49.322;7.218;2023-03-01T01:51:45;15.80;;;8.53;;
18274;SDS011;19470;49.322;7.218;2023-03-01T01:54:16;15.00;;;8.13;;
18274;SDS011;19470;49.322;7.218;2023-03-01T01:56:50;12.30;;;7.93;;
18274;SDS011;19470;49.322;7.218;2023-03-01T01:59:23;18.03;;;8.70;;
18274;SDS011;19470;49.322;7.218;2023-03-01T02:01:51;14.20;;;8.40;;
18274;SDS011;19470;49.322;7.218;2023-03-01T02:04:18;16.73;;;8.70;;
18274;SDS011;19470;49.322;7.218;2023-03-01T02:06:47;14.67;;;8.80;;
18274;SDS011;19470;49.322;7.218;2023-03-01T02:09:20;14.97;;;8.77;;
18274;SDS011;19470;49.322;7.218;2023-03-01T02:11:47;14.50;;;8.90;;
18274;SDS011;19470;49.322;7.218;2023-03-01T02:14:15;15.43;;;9.10;;
18274;SDS011;19470;49.322;7.218;2023-03-01T02:16:42;15.53;;;8.73;;
18274;SDS011;19470;49.322;7.218;2023-03-01T02:19:09;12.57;;;8.63;;
18274;SDS011;19470;49.322;7.218;2023-03-01T02:21:45;13.93;;;8.57;;
18274;SDS011;19470;49.322;7.218;2023-03-01T02:24:25;18.20;;;9.13;;
18274;SDS011;19470;49.322;7.218;2023-03-01T02:27:03;18.00;;;9.40;;
18274;SDS011;19470;49.322;7.218;2023-03-01T02:29:31;20.00;;;9.63;;
18274;SDS011;19470;49.322;7.218;2023-03-01T02:31:59;16.83;;;9.00;;
18274;SDS011;19470;49.322;7.218;2023-03-01T02:34:30;19.57;;;9.80;;
18274;SDS011;19470;49.322;7.218;2023-03-01T02:37:00;16.73;;;9.33;;
18274;SDS011;19470;49.322;7.218;2023-03-01T02:39:30;15.40;;;8.97;;
18274;SDS011;19470;49.322;7.218;2023-03-01T02:42:00;17.87;;;9.07;;
18274;SDS011;19470;49.322;7.218;2023-03-01T02:44:28;14.93;;;8.57;;
18274;SDS011;19470;49.322;7.218;2023-03-01T02:46:56;15.03;;;9.20;;
18274;SDS011;19470;49.322;7.218;2023-03-01T02:49:27;14.97;;;9.07;;
18274;SDS011;19470;49.322;7.218;2023-03-01T02:52:01;16.23;;;8.93;;
18274;SDS011;19470;49.322;7.218;2023-03-01T02:54:43;13.90;;;8.67;;
18274;SDS011;19470;49.322;7.218;2023-03-01T02:57:14;13.10;;;9.13;;
18274;SDS011;19470;49.322;7.218;2023-03-01T02:59:41;14.40;;;8.83;;
18274;SDS011;19470;49.322;7.218;2023-03-01T03:05:32;14.80;;;8.23;;
18274;SDS011;19470;49.322;7.218;2023-03-01T03:07:59;16.53;;;9.27;;
18274;SDS011;19470;49.322;7.218;2023-03-01T03:10:28;16.23;;;8.93;;
18274;SDS011;19470;49.322;7.218;2023-03-01T03:12:57;15.37;;;8.23;;
18274;SDS011;19470;49.322;7.218;2023-03-01T03:15:26;104.13;;;42.10;;
18274;SDS011;19470;49.322;7.218;2023-03-01T03:17:54;18.73;;;11.37;;
18274;SDS011;19470;49.322;7.218;2023-03-01T03:20:23;21.13;;;11.90;;
18274;SDS011;19470;49.322;7.218;2023-03-01T03:22:53;18.57;;;10.70;;
18274;SDS011;19470;49.322;7.218;2023-03-01T03:25:21;17.73;;;9.77;;
18274;SDS011;19470;49.322;7.218;2023-03-01T03:27:48;15.53;;;9.73;;
18274;SDS011;19470;49.322;7.218;2023-03-01T03:30:22;19.30;;;10.50;;
18274;SDS011;19470;49.322;7.218;2023-03-01T03:32:49;16.33;;;9.87;;
18274;SDS011;19470;49.322;7.218;2023-03-01T03:35:18;16.50;;;9.83;;
18274;SDS011;19470;49.322;7.218;2023-03-01T03:37:45;17.93;;;10.20;;
18274;SDS011;19470;49.322;7.218;2023-03-01T03:40:33;14.80;;;9.57;;
18274;SDS011;19470;49.322;7.218;2023-03-01T03:43:01;19.43;;;10.60;;
18274;SDS011;19470;49.322;7.218;2023-03-01T03:45:28;22.63;;;10.47;;
18274;SDS011;19470;49.322;7.218;2023-03-01T03:47:58;17.63;;;10.47;;
18274;SDS011;19470;49.322;7.218;2023-03-01T03:50:24;17.77;;;10.17;;
18274;SDS011;19470;49.322;7.218;2023-03-01T03:52:51;15.73;;;10.30;;
18274;SDS011;19470;49.322;7.218;2023-03-01T03:55:17;15.80;;;9.67;;
18274;SDS011;19470;49.322;7.218;2023-03-01T03:57:46;16.87;;;9.87;;
18274;SDS011;19470;49.322;7.218;2023-03-01T04:00:16;16.70;;;10.63;;
18274;SDS011;19470;49.322;7.218;2023-03-01T04:02:45;18.83;;;10.20;;
18274;SDS011;19470;49.322;7.218;2023-03-01T04:05:22;17.43;;;10.23;;
18274;SDS011;19470;49.322;7.218;2023-03-01T04:11:12;18.10;;;10.00;;
18274;SDS011;19470;49.322;7.218;2023-03-01T04:13:56;18.73;;;11.30;;
18274;SDS011;19470;49.322;7.218;2023-03-01T04:16:24;16.80;;;10.40;;
18274;SDS011;19470;49.322;7.218;2023-03-01T04:18:51;15.57;;;9.13;;
18274;SDS011;19470;49.322;7.218;2023-03-01T04:21:23;18.17;;;10.17;;
18274;SDS011;19470;49.322;7.218;2023-03-01T04:27:11;17.23;;;9.30;;
18274;SDS011;19470;49.322;7.218;2023-03-01T04:29:39;16.77;;;9.67;;
18274;SDS011;19470;49.322;7.218;2023-03-01T04:32:05;18.43;;;10.57;;
18274;SDS011;19470;49.322;7.218;2023-03-01T04:34:32;17.27;;;10.00;;
18274;SDS011;19470;49.322;7.218;2023-03-01T04:36:58;17.47;;;10.37;;
18274;SDS011;19470;49.322;7.218;2023-03-01T04:39:25;18.60;;;10.50;;
18274;SDS011;19470;49.322;7.218;2023-03-01T04:41:51;17.97;;;10.47;;
18274;SDS011;19470;49.322;7.218;2023-03-01T04:44:18;17.30;;;10.07;;
18274;SDS011;19470;49.322;7.218;2023-03-01T04:46:46;23.20;;;11.60;;
18274;SDS011;19470;49.322;7.218;2023-03-01T04:49:15;19.40;;;11.00;;
18274;SDS011;19470;49.322;7.218;2023-03-01T04:51:41;19.60;;;10.77;;
18274;SDS011;19470;49.322;7.218;2023-03-01T04:54:08;18.57;;;10.50;;
18274;SDS011;19470;49.322;7.218;2023-03-01T04:56:35;64.20;;;28.33;;
18274;SDS011;19470;49.322;7.218;2023-03-01T04:59:01;49.53;;;22.60;;
18274;SDS011;19470;49.322;7.218;2023-03-01T05:01:30;20.80;;;11.37;;
18274;SDS011;19470;49.322;7.218;2023-03-01T05:03:58;21.97;;;11.50;;
18274;SDS011;19470;49.322;7.218;2023-03-01T05:06:28;21.33;;;12.47;;
18274;SDS011;19470;49.322;7.218;2023-03-01T05:08:55;23.83;;;12.00;;
18274;SDS011;19470;49.322;7.218;2023-03-01T05:11:21;20.97;;;11.13;;
18274;SDS011;19470;49.322;7.218;2023-03-01T05:13:48;22.30;;;13.67;;
18274;SDS011;19470;49.322;7.218;2023-03-01T05:16:19;27.10;;;12.40;;
18274;SDS011;19470;49.322;7.218;2023-03-01T05:18:46;19.70;;;11.67;;
18274;SDS011;19470;49.322;7.218;2023-03-01T05:21:16;26.40;;;14.93;;
18274;SDS011;19470;49.322;7.218;2023-03-01T05:23:43;20.33;;;12.43;;
18274;SDS011;19470;49.322;7.218;2023-03-01T05:26:10;20.13;;;11.13;;
18274;SDS011;19470;49.322;7.218;2023-03-01T05:28:37;18.73;;;11.07;;
18274;SDS011;19470;49.322;7.218;2023-03-01T05:31:04;19.87;;;10.70;;
18274;SDS011;19470;49.322;7.218;2023-03-01T05:33:34;18.97;;;10.60;;
18274;SDS011;19470;49.322;7.218;2023-03-01T05:36:01;21.77;;;11.33;;
18274;SDS011;19470;49.322;7.218;2023-03-01T05:38:29;23.83;;;12.37;;
18274;SDS011;19470;49.322;7.218;2023-03-01T05:40:56;28.23;;;12.07;;
18274;SDS011;19470;49.322;7.218;2023-03-01T05:43:23;24.20;;;12.43;;
18274;SDS011;19470;49.322;7.218;2023-03-01T05:45:49;23.30;;;12.57;;
18274;SDS011;19470;49.322;7.218;2023-03-01T05:48:16;28.07;;;13.43;;
18274;SDS011;19470;49.322;7.218;2023-03-01T05:50:44;26.27;;;13.37;;
18274;SDS011;19470;49.322;7.218;2023-03-01T05:53:12;32.63;;;15.27;;
18274;SDS011;19470;49.322;7.218;2023-03-01T05:55:41;28.40;;;14.43;;
18274;SDS011;19470;49.322;7.218;2023-03-01T05:58:10;25.60;;;12.97;;
18274;SDS011;19470;49.322;7.218;2023-03-01T06:00:39;23.67;;;13.30;;
18274;SDS011;19470;49.322;7.218;2023-03-01T06:03:06;21.90;;;11.83;;
18274;SDS011;19470;49.322;7.218;2023-03-01T06:05:32;22.53;;;13.63;;
18274;SDS011;19470;49.322;7.218;2023-03-01T06:07:59;41.07;;;19.63;;
18274;SDS011;19470;49.322;7.218;2023-03-01T06:10:26;31.43;;;15.20;;
18274;SDS011;19470;49.322;7.218;2023-03-01T06:12:55;24.63;;;11.87;;
18274;SDS011;19470;49.322;7.218;2023-03-01T06:15:21;26.50;;;12.23;;
18274;SDS011;19470;49.322;7.218;2023-03-01T06:17:48;22.40;;;12.40;;
18274;SDS011;19470;49.322;7.218;2023-03-01T06:20:16;23.87;;;12.17;;
18274;SDS011;19470;49.322;7.218;2023-03-01T06:22:45;23.00;;;12.17;;
18274;SDS011;19470;49.322;7.218;2023-03-01T06:28:35;23.87;;;13.00;;
18274;SDS011;19470;49.322;7.218;2023-03-01T06:31:02;48.03;;;22.80;;
18274;SDS011;19470;49.322;7.218;2023-03-01T06:33:29;95.57;;;41.13;;
18274;SDS011;19470;49.322;7.218;2023-03-01T06:35:55;41.87;;;22.50;;
18274;SDS011;19470;49.322;7.218;2023-03-01T06:38:22;27.57;;;14.43;;
18274;SDS011;19470;49.322;7.218;2023-03-01T06:40:51;26.20;;;13.83;;
18274;SDS011;19470;49.322;7.218;2023-03-01T06:43:18;32.53;;;13.27;;
18274;SDS011;19470;49.322;7.218;2023-03-01T06:45:45;22.53;;;12.50;;
18274;SDS011;19470;49.322;7.218;2023-03-01T06:48:12;24.83;;;12.80;;
18274;SDS011;19470;49.322;7.218;2023-03-01T06:50:39;24.43;;;13.00;;
18274;SDS011;19470;49.322;7.218;2023-03-01T06:53:05;25.83;;;14.87;;
18274;SDS011;19470;49.322;7.218;2023-03-01T06:55:32;29.67;;;15.07;;
18274;SDS011;19470;49.322;7.218;2023-03-01T06:58:00;23.07;;;11.47;;
18274;SDS011;19470;49.322;7.218;2023-03-01T07:00:28;30.37;;;15.63;;
18274;SDS011;19470;49.322;7.218;2023-03-01T07:02:59;18.17;;;8.33;;
18274;SDS011;19470;49.322;7.218;2023-03-01T07:05:26;29.73;;;15.03;;
18274;SDS011;19470;49.322;7.218;2023-03-01T07:07:53;27.50;;;14.60;;
18274;SDS011;19470;49.322;7.218;2023-03-01T07:10:21;24.20;;;13.83;;
18274;SDS011;19470;49.322;7.218;2023-03-01T07:12:47;31.40;;;16.53;;
18274;SDS011;19470;49.322;7.218;2023-03-01T07:15:14;39.10;;;19.57;;
18274;SDS011;19470;49.322;7.218;2023-03-01T07:17:41;24.27;;;13.47;;
18274;SDS011;19470;49.322;7.218;2023-03-01T07:20:11;25.27;;;13.97;;
18274;SDS011;19470;49.322;7.218;2023-03-01T07:22:39;23.83;;;13.57;;
18274;SDS011;19470;49.322;7.218;2023-03-01T07:25:07;23.67;;;12.13;;
18274;SDS011;19470;49.322;7.218;2023-03-01T07:27:34;20.77;;;13.00;;
18274;SDS011;19470;49.322;7.218;2023-03-01T07:30:01;25.27;;;12.70;;
18274;SDS011;19470;49.322;7.218;2023-03-01T07:32:28;22.30;;;13.07;;
18274;SDS011;19470;49.322;7.218;2023-03-01T07:34:54;20.93;;;12.47;;
18274;SDS011;19470;49.322;7.218;2023-03-01T07:37:22;53.73;;;25.50;;
18274;SDS011;19470;49.322;7.218;2023-03-01T07:39:49;21.97;;;12.63;;
18274;SDS011;19470;49.322;7.218;2023-03-01T07:42:15;22.10;;;13.13;;
18274;SDS011;19470;49.322;7.218;2023-03-01T07:44:42;25.97;;;13.53;;
18274;SDS011;19470;49.322;7.218;2023-03-01T07:47:08;20.63;;;12.90;;
18274;SDS011;19470;49.322;7.218;2023-03-01T07:49:35;21.63;;;12.03;;
18274;SDS011;19470;49.322;7.218;2023-03-01T07:52:01;21.07;;;12.97;;
18274;SDS011;19470;49.322;7.218;2023-03-01T07:54:29;24.17;;;13.03;;
18274;SDS011;19470;49.322;7.218;2023-03-01T07:56:56;23.33;;;12.60;;
18274;SDS011;19470;49.322;7.218;2023-03-01T07:59:23;24.17;;;13.00;;
18274;SDS011;19470;49.322;7.218;2023-03-01T08:01:54;22.97;;;12.93;;
18274;SDS011;19470;49.322;7.218;2023-03-01T08:04:21;21.83;;;12.93;;
18274;SDS011;19470;49.322;7.218;2023-03-01T08:06:49;34.43;;;17.53;;
18274;SDS011;19470;49.322;7.218;2023-03-01T08:09:16;23.10;;;13.40;;
18274;SDS011;19470;49.322;7.218;2023-03-01T08:11:44;24.53;;;13.20;;
18274;SDS011;19470;49.322;7.218;2023-03-01T08:14:10;21.87;;;12.47;;
18274;SDS011;19470;49.322;7.218;2023-03-01T08:16:37;21.30;;;12.23;;
18274;SDS011;19470;49.322;7.218;2023-03-01T08:19:04;21.33;;;12.30;;
18274;SDS011;19470;49.322;7.218;2023-03-01T08:21:31;22.03;;;13.10;;
18274;SDS011;19470;49.322;7.218;2023-03-01T08:23:59;19.33;;;12.10;;
18274;SDS011;19470;49.322;7.218;2023-03-01T08:26:26;21.60;;;12.50;;
18274;SDS011;19470;49.322;7.218;2023-03-01T08:28:54;22.17;;;12.33;;
18274;SDS011;19470;49.322;7.218;2023-03-01T08:31:21;18.30;;;10.50;;
18274;SDS011;19470;49.322;7.218;2023-03-01T08:33:50;20.57;;;11.93;;
18274;SDS011;19470;49.322;7.218;2023-03-01T08:36:20;21.00;;;12.50;;
18274;SDS011;19470;49.322;7.218;2023-03-01T08:38:47;18.77;;;10.73;;
18274;SDS011;19470;49.322;7.218;2023-03-01T08:41:14;21.23;;;12.90;;
18274;SDS011;19470;49.322;7.218;2023-03-01T08:43:41;24.73;;;13.03;;
18274;SDS011;19470;49.322;7.218;2023-03-01T08:46:09;22.47;;;14.13;;
18274;SDS011;19470;49.322;7.218;2023-03-01T08:48:37;22.17;;;13.00;;
18274;SDS011;19470;49.322;7.218;2023-03-01T08:51:07;22.67;;;12.77;;
18274;SDS011;19470;49.322;7.218;2023-03-01T08:53:35;20.75;;;12.00;;
18274;SDS011;19470;49.322;7.218;2023-03-01T08:56:01;21.05;;;12.32;;
18274;SDS011;19470;49.322;7.218;2023-03-01T08:58:28;20.58;;;12.20;;
18274;SDS011;19470;49.322;7.218;2023-03-01T09:00:55;22.45;;;13.30;;
18274;SDS011;19470;49.322;7.218;2023-03-01T09:03:23;20.35;;;13.02;;
18274;SDS011;19470;49.322;7.218;2023-03-01T09:05:50;20.83;;;13.30;;
18274;SDS011;19470;49.322;7.218;2023-03-01T09:08:17;126.53;;;114.40;;
18274;SDS011;19470;49.322;7.218;2023-03-01T09:10:43;92.85;;;86.32;;
18274;SDS011;19470;49.322;7.218;2023-03-01T09:13:10;69.43;;;63.78;;
18274;SDS011;19470;49.322;7.218;2023-03-01T09:15:37;20.73;;;14.77;;
18274;SDS011;19470;49.322;7.218;2023-03-01T09:18:04;21.10;;;14.40;;
18274;SDS011;19470;49.322;7.218;2023-03-01T09:20:32;37.92;;;34.47;;
18274;SDS011;19470;49.322;7.218;2023-03-01T09:22:58;25.85;;;22.15;;
18274;SDS011;19470;49.322;7.218;2023-03-01T09:25:25;34.10;;;30.70;;
18274;SDS011;19470;49.322;7.218;2023-03-01T09:27:52;25.58;;;22.48;;
18274;SDS011;19470;49.322;7.218;2023-03-01T09:30:20;40.50;;;36.80;;
18274;SDS011;19470;49.322;7.218;2023-03-01T09:32:47;222.55;;;209.63;;
18274;SDS011;19470;49.322;7.218;2023-03-01T09:35:13;259.50;;;242.73;;
18274;SDS011;19470;49.322;7.218;2023-03-01T09:37:41;134.50;;;126.45;;
18274;SDS011;19470;49.322;7.218;2023-03-01T09:40:11;199.13;;;187.68;;
18274;SDS011;19470;49.322;7.218;2023-03-01T09:42:45;219.15;;;207.25;;
18274;SDS011;19470;49.322;7.218;2023-03-01T09:45:21;644.53;;;594.45;;
18274;SDS011;19470;49.322;7.218;2023-03-01T09:47:52;327.77;;;310.08;;
18274;SDS011;19470;49.322;7.218;2023-03-01T09:50:20;537.55;;;502.15;;
18274;SDS011;19470;49.322;7.218;2023-03-01T09:52:53;780.38;;;724.45;;
18274;SDS011;19470;49.322;7.218;2023-03-01T09:55:25;480.23;;;450.90;;
18274;SDS011;19470;49.322;7.218;2023-03-01T09:57:57;262.33;;;247.73;;
18274;SDS011;19470;49.322;7.218;2023-03-01T10:00:32;635.05;;;587.45;;
18274;SDS011;19470;49.322;7.218;2023-03-01T10:03:11;241.93;;;228.55;;
18274;SDS011;19470;49.322;7.218;2023-03-01T10:05:48;498.80;;;465.30;;
18274;SDS011;19470;49.322;7.218;2023-03-01T10:08:38;537.97;;;502.67;;
18274;SDS011;19470;49.322;7.218;2023-03-01T10:11:19;404.33;;;381.50;;
18274;SDS011;19470;49.322;7.218;2023-03-01T10:13:50;680.83;;;624.42;;
18274;SDS011;19470;49.322;7.218;2023-03-01T10:16:21;487.52;;;458.63;;
18274;SDS011;19470;49.322;7.218;2023-03-01T10:18:53;628.80;;;568.10;;
18274;SDS011;19470;49.322;7.218;2023-03-01T10:21:25;749.17;;;699.85;;
18274;SDS011;19470;49.322;7.218;2023-03-01T10:23:55;731.75;;;683.75;;
18274;SDS011;19470;49.322;7.218;2023-03-01T10:26:37;812.60;;;754.83;;
18274;SDS011;19470;49.322;7.218;2023-03-01T10:29:09;857.10;;;795.65;;
18274;SDS011;19470;49.322;7.218;2023-03-01T10:31:38;895.67;;;832.42;;
18274;SDS011;19470;49.322;7.218;2023-03-01T10:34:09;685.00;;;632.90;;
18274;SDS011;19470;49.322;7.218;2023-03-01T10:36:38;1999.90;;;999.90;;
18274;SDS011;19470;49.322;7.218;2023-03-01T10:39:10;1999.90;;;999.90;;
18274;SDS011;19470;49.322;7.218;2023-03-01T10:41:44;1999.90;;;999.90;;
18274;SDS011;19470;49.322;7.218;2023-03-01T10:44:34;1999.90;;;999.90;;
18274;SDS011;19470;49.322;7.218;2023-03-01T10:47:09;643.28;;;593.67;;
18274;SDS011;19470;49.322;7.218;2023-03-01T10:49:39;1999.90;;;999.90;;
18274;SDS011;19470;49.322;7.218;2023-03-01T10:52:23;1999.90;;;999.90;;
18274;SDS011;19470;49.322;7.218;2023-03-01T10:54:53;1999.90;;;999.90;;
18274;SDS011;19470;49.322;7.218;2023-03-01T10:57:25;1999.90;;;999.90;;
18274;SDS011;19470;49.322;7.218;2023-03-01T11:00:00;1999.90;;;999.90;;
18274;SDS011;19470;49.322;7.218;2023-03-01T11:02:41;1999.90;;;999.90;;
18274;SDS011;19470;49.322;7.218;2023-03-01T11:05:14;1999.90;;;999.90;;
18274;SDS011;19470;49.322;7.218;2023-03-01T11:07:47;1999.90;;;999.90;;
18274;SDS011;19470;49.322;7.218;2023-03-01T11:10:18;1999.90;;;999.90;;
18274;SDS011;19470;49.322;7.218;2023-03-01T11:12:46;1999.90;;;999.90;;
18274;SDS011;19470;49.322;7.218;2023-03-01T11:15:19;1999.90;;;999.90;;
18274;SDS011;19470;49.322;7.218;2023-03-01T11:17:48;1999.90;;;999.90;;
18274;SDS011;19470;49.322;7.218;2023-03-01T11:20:17;1999.90;;;999.90;;
18274;SDS011;19470;49.322;7.218;2023-03-01T11:22:51;1999.90;;;999.90;;
18274;SDS011;19470;49.322;7.218;2023-03-01T11:25:23;1999.90;;;999.90;;
18274;SDS011;19470;49.322;7.218;2023-03-01T11:27:53;1999.90;;;999.90;;
18274;SDS011;19470;49.322;7.218;2023-03-01T11:30:23;1999.90;;;999.90;;
18274;SDS011;19470;49.322;7.218;2023-03-01T11:32:54;1999.90;;;999.90;;
18274;SDS011;19470;49.322;7.218;2023-03-01T11:35:29;1999.90;;;999.90;;
18274;SDS011;19470;49.322;7.218;2023-03-01T11:37:59;1999.90;;;999.90;;
18274;SDS011;19470;49.322;7.218;2023-03-01T11:40:39;1999.90;;;999.90;;
18274;SDS011;19470;49.322;7.218;2023-03-01T11:43:11;1999.90;;;999.90;;
18274;SDS011;19470;49.322;7.218;2023-03-01T11:45:52;1999.90;;;999.90;;
18274;SDS011;19470;49.322;7.218;2023-03-01T11:48:41;1999.90;;;999.90;;
18274;SDS011;19470;49.322;7.218;2023-03-01T11:51:19;1999.90;;;999.90;;
18274;SDS011;19470;49.322;7.218;2023-03-01T11:56:41;1999.90;;;999.90;;
18274;SDS011;19470;49.322;7.218;2023-03-01T11:59:25;1999.90;;;999.90;;
18274;SDS011;19470;49.322;7.218;2023-03-01T12:02:08;1999.90;;;999.90;;
18274;SDS011;19470;49.322;7.218;2023-03-01T12:07:47;1999.90;;;999.90;;
18274;SDS011;19470;49.322;7.218;2023-03-01T12:10:23;1999.90;;;999.90;;
18274;SDS011;19470;49.322;7.218;2023-03-01T12:12:58;1999.90;;;999.90;;
18274;SDS011;19470;49.322;7.218;2023-03-01T12:15:42;1999.90;;;999.90;;
18274;SDS011;19470;49.322;7.218;2023-03-01T12:21:27;1999.90;;;999.90;;
18274;SDS011;19470;49.322;7.218;2023-03-01T12:27:11;1999.90;;;999.90;;
18274;SDS011;19470;49.322;7.218;2023-03-01T12:29:50;1999.90;;;999.90;;
18274;SDS011;19470;49.322;7.218;2023-03-01T12:35:20;1999.90;;;999.90;;
18274;SDS011;19470;49.322;7.218;2023-03-01T12:38:20;1999.90;;;999.90;;
18274;SDS011;19470;49.322;7.218;2023-03-01T12:41:11;1999.90;;;999.90;;
18274;SDS011;19470;49.322;7.218;2023-03-01T12:43:58;1999.90;;;999.90;;
18274;SDS011;19470;49.322;7.218;2023-03-01T12:46:37;1999.90;;;999.90;;
18274;SDS011;19470;49.322;7.218;2023-03-01T12:49:18;1999.90;;;999.90;;
18274;SDS011;19470;49.322;7.218;2023-03-01T12:51:51;1999.90;;;999.90;;
18274;SDS011;19470;49.322;7.218;2023-03-01T12:54:26;1999.90;;;999.90;;
18274;SDS011;19470;49.322;7.218;2023-03-01T12:56:54;1999.90;;;999.90;;
18274;SDS011;19470;49.322;7.218;2023-03-01T12:59:24;1999.90;;;999.90;;
18274;SDS011;19470;49.322;7.218;2023-03-01T13:02:01;1999.90;;;999.90;;
18274;SDS011;19470;49.322;7.218;2023-03-01T13:04:40;1999.90;;;999.90;;
18274;SDS011;19470;49.322;7.218;2023-03-01T13:07:22;1999.90;;;999.90;;
18274;SDS011;19470;49.322;7.218;2023-03-01T13:09:57;1999.90;;;999.90;;
18274;SDS011;19470;49.322;7.218;2023-03-01T13:12:42;1999.90;;;999.90;;
18274;SDS011;19470;49.322;7.218;2023-03-01T13:15:26;1999.90;;;999.90;;
18274;SDS011;19470;49.322;7.218;2023-03-01T13:17:56;1999.90;;;999.90;;
18274;SDS011;19470;49.322;7.218;2023-03-01T13:20:25;1999.90;;;999.90;;
18274;SDS011;19470;49.322;7.218;2023-03-01T13:23:01;1999.90;;;999.90;;
18274;SDS011;19470;49.322;7.218;2023-03-01T13:25:30;1999.90;;;999.90;;
18274;SDS011;19470;49.322;7.218;2023-03-01T13:31:02;1999.90;;;999.90;;
18274;SDS011;19470;49.322;7.218;2023-03-01T13:39:26;1999.90;;;999.90;;
18274;SDS011;19470;49.322;7.218;2023-03-01T13:41:56;1999.90;;;999.90;;
18274;SDS011;19470;49.322;7.218;2023-03-01T13:44:24;1999.90;;;999.90;;
18274;SDS011;19470;49.322;7.218;2023-03-01T13:46:56;1999.90;;;999.90;;
18274;SDS011;19470;49.322;7.218;2023-03-01T13:49:26;1999.90;;;999.90;;
18274;SDS011;19470;49.322;7.218;2023-03-01T13:51:55;1999.90;;;999.90;;
18274;SDS011;19470;49.322;7.218;2023-03-01T13:54:24;1999.90;;;999.90;;
18274;SDS011;19470;49.322;7.218;2023-03-01T13:56:52;1999.90;;;999.90;;
18274;SDS011;19470;49.322;7.218;2023-03-01T13:59:21;1999.90;;;999.90;;
18274;SDS011;19470;49.322;7.218;2023-03-01T14:01:51;1999.90;;;999.90;;
18274;SDS011;19470;49.322;7.218;2023-03-01T14:04:20;1999.90;;;999.90;;
18274;SDS011;19470;49.322;7.218;2023-03-01T14:06:49;1999.90;;;999.90;;
18274;SDS011;19470;49.322;7.218;2023-03-01T14:09:16;1999.90;;;999.90;;
18274;SDS011;19470;49.322;7.218;2023-03-01T14:11:50;1999.90;;;999.90;;
18274;SDS011;19470;49.322;7.218;2023-03-01T14:14:36;1999.90;;;999.90;;
18274;SDS011;19470;49.322;7.218;2023-03-01T14:17:11;1999.90;;;999.90;;
18274;SDS011;19470;49.322;7.218;2023-03-01T14:19:47;1575.38;;;818.85;;
18274;SDS011;19470;49.322;7.218;2023-03-01T14:22:22;1098.28;;;589.35;;
18274;SDS011;19470;49.322;7.218;2023-03-01T14:24:54;1999.90;;;999.90;;
18274;SDS011;19470;49.322;7.218;2023-03-01T14:27:24;1999.90;;;999.90;;
18274;SDS011;19470;49.322;7.218;2023-03-01T14:29:56;1516.97;;;765.30;;
18274;SDS011;19470;49.322;7.218;2023-03-01T14:35:52;1999.90;;;999.90;;
18274;SDS011;19470;49.322;7.218;2023-03-01T14:38:28;1999.90;;;999.90;;
18274;SDS011;19470;49.322;7.218;2023-03-01T14:40:58;118.07;;;106.60;;
18274;SDS011;19470;49.322;7.218;2023-03-01T14:43:26;1999.90;;;999.90;;
18274;SDS011;19470;49.322;7.218;2023-03-01T14:45:55;1999.90;;;999.90;;
18274;SDS011;19470;49.322;7.218;2023-03-01T14:48:22;1999.90;;;999.90;;
18274;SDS011;19470;49.322;7.218;2023-03-01T14:50:49;753.28;;;699.08;;
18274;SDS011;19470;49.322;7.218;2023-03-01T14:53:17;812.90;;;756.55;;
18274;SDS011;19470;49.322;7.218;2023-03-01T14:55:48;788.00;;;733.63;;
18274;SDS011;19470;49.322;7.218;2023-03-01T14:58:19;716.00;;;661.72;;
18274;SDS011;19470;49.322;7.218;2023-03-01T15:00:48;797.35;;;743.25;;
18274;SDS011;19470;49.322;7.218;2023-03-01T15:03:19;615.85;;;567.10;;
18274;SDS011;19470;49.322;7.218;2023-03-01T15:05:50;1999.90;;;999.90;;
18274;SDS011;19470;49.322;7.218;2023-03-01T15:08:18;1515.93;;;764.72;;
18274;SDS011;19470;49.322;7.218;2023-03-01T15:10:58;1999.90;;;999.90;;
18274;SDS011;19470;49.322;7.218;2023-03-01T15:13:29;740.35;;;687.95;;